RKSO/OSN METAR and TAF weather

Enter ICAO airport designator
Station Type Date Time Source
RKSO METAR 2022/08/12 13:56 UTC NOAA

RKSO 121356Z 23003KT 9SM FEW240 24/23 A2974 RMK AO2A SLP074 T02350233 TSNO CHINO RWY09 $


Station Type Date Time Source
RKSO Decoded METAR 2022/08/12 13:56 UTC NOAA

Osan Ab, Korea, South (RKSO) 37-06N 127-02E 12M
Aug 12, 2022 - 09:56 AM EDT / 2022.08.12 1356 UTC
Wind: from the SW (230 degrees) at 3 MPH (3 KT):0
Visibility: 9 mile(s):0
Sky conditions: mostly clear
Temperature: 74.3 F (23.5 C)
Dew Point: 73.9 F (23.3 C)
Relative Humidity: 98%
Pressure (altimeter): 29.74 in. Hg (1007 hPa)
ob: RKSO 121356Z 23003KT 9SM FEW240 24/23 A2974 RMK AO2A SLP074 T02350233 TSNO CHINO RWY09
cycle: 14

Station Type Date Time Source
RKSO TAF 2022/08/12 13:06 UTC NOAA

TAF TAF RKSO 121300Z 1213/1319 VRB06KT 9000 HZ SCT050 QNH2970INS
BECMG 1217/1218 VRB06KT 9000 HZ BKN040 QNH2971INS
BECMG 1220/1221 15009KT 9999 NSW BKN040 QNH2973INS
BECMG 1300/1301 15009KT 6000 -SHRA BKN025 QNH2973INS
BECMG 1303/1304 18009KT 6000 -SHRA BKN015 QNH2973INS
TEMPO 1304/1309 3200 -TSRA BKN010CB
BECMG 1312/1313 VRB06KT 4800 BR BKN010 QNH2970INS
BECMG 1316/1317 09009KT 3200 BR BKN005 QNH2970INS TX27/1307Z TN20/1221Z LAST NO
AMDS 1213 NEXT 1313

Example: see airport list